createdAt,value
2018-03-26T00:00:46.241Z,49.47
2018-03-26T00:01:46.271Z,50.23
2018-03-26T00:02:46.277Z,50.13
2018-03-26T00:03:46.299Z,50.04
2018-03-26T00:04:46.325Z,50.13
2018-03-26T00:05:46.337Z,50.68
2018-03-26T00:06:46.369Z,51.16
2018-03-26T00:07:46.369Z,50.9
2018-03-26T00:08:46.398Z,50.42
2018-03-26T00:09:46.204Z,50.32
2018-03-26T00:10:46.171Z,50.71
2018-03-26T00:11:46.444Z,50.42
2018-03-26T00:12:46.467Z,50.23
2018-03-26T00:13:46.482Z,49.95
2018-03-26T00:14:46.244Z,49.76
2018-03-26T00:15:46.516Z,49.56
2018-03-26T00:16:46.537Z,50.13
2018-03-26T00:17:46.555Z,49.85
2018-03-26T00:18:46.579Z,49.76
2018-03-26T00:19:46.589Z,49.73
2018-03-26T00:20:46.614Z,50.23
2018-03-26T00:21:46.662Z,50.3
2018-03-26T00:22:46.647Z,50.01
2018-03-26T00:23:46.413Z,50.13
2018-03-26T00:24:46.731Z,50.01
2018-03-26T00:25:46.700Z,51.25
2018-03-26T00:26:46.714Z,51.45
2018-03-26T00:27:46.738Z,51.82
2018-03-26T00:28:46.749Z,52.4
2018-03-26T00:29:46.517Z,52.11
2018-03-26T00:30:46.793Z,52.2
2018-03-26T00:31:46.809Z,52.78
2018-03-26T00:32:46.828Z,53.61
2018-03-26T00:33:46.850Z,54.18
2018-03-26T00:34:46.782Z,54.37
2018-03-26T00:35:46.880Z,54.08
2018-03-26T00:36:46.897Z,53.7
2018-03-26T00:37:46.662Z,52.94
2018-03-26T00:38:46.933Z,53.42
2018-03-26T00:39:46.753Z,53.7
2018-03-26T00:40:46.969Z,53.87
2018-03-26T00:41:46.989Z,53.67
2018-03-26T00:42:47.041Z,53.96
2018-03-26T00:43:47.032Z,53.96
2018-03-26T00:44:46.787Z,54.63
2018-03-26T00:45:47.060Z,54.44
2018-03-26T00:46:46.821Z,55.1
2018-03-26T00:47:47.093Z,54.72
2018-03-26T00:48:46.868Z,55.29
2018-03-26T00:49:46.874Z,55.2
2018-03-26T00:50:46.889Z,55.2
2018-03-26T00:51:47.009Z,55.29
2018-03-26T00:52:47.179Z,54.91
2018-03-26T00:53:47.197Z,54.91
2018-03-26T00:54:47.213Z,55.49
2018-03-26T00:55:47.239Z,54.91
2018-03-26T00:56:47.300Z,54.82
2018-03-26T00:57:47.266Z,55.1
2018-03-26T00:58:47.290Z,54.44
2018-03-26T00:59:47.046Z,54.91
2018-03-26T01:00:47.319Z,54.91
2018-03-26T01:01:47.341Z,55.2
2018-03-26T01:02:47.357Z,55.2
2018-03-26T01:03:47.115Z,54.91
2018-03-26T01:04:47.393Z,54.44
2018-03-26T01:05:47.404Z,55.1
2018-03-26T01:06:47.524Z,54.91
2018-03-26T01:07:47.188Z,55.01
2018-03-26T01:08:47.459Z,54.82
2018-03-26T01:09:47.475Z,55.01
2018-03-26T01:10:47.497Z,54.72
2018-03-26T01:11:47.559Z,55.29
2018-03-26T01:12:47.274Z,55.1
2018-03-26T01:13:47.290Z,54.91
2018-03-26T01:14:47.561Z,54.82
2018-03-26T01:15:47.326Z,55.1
2018-03-26T01:16:47.393Z,55.29
2018-03-26T01:17:47.357Z,54.82
2018-03-26T01:18:47.633Z,54.25
2018-03-26T01:19:47.395Z,54.82
2018-03-26T01:20:47.665Z,54.72
2018-03-26T01:21:47.687Z,54.82
2018-03-26T01:22:47.447Z,54.53
2018-03-26T01:23:47.719Z,54.06
2018-03-26T01:24:47.737Z,54.82
2018-03-26T01:25:47.504Z,54.91
2018-03-26T01:26:47.770Z,54.35
2018-03-26T01:27:47.533Z,54.06
2018-03-26T01:28:47.806Z,54.06
2018-03-26T01:29:47.827Z,54.06
2018-03-26T01:30:47.584Z,54.15
2018-03-26T01:31:47.653Z,54.15
2018-03-26T01:32:47.619Z,54.35
2018-03-26T01:33:47.887Z,54.25
2018-03-26T01:34:47.911Z,54.35
2018-03-26T01:35:47.926Z,54.35
2018-03-26T01:36:47.943Z,54.91
2018-03-26T01:37:47.958Z,54.25
2018-03-26T01:38:47.975Z,54.91
2018-03-26T01:39:48.000Z,54.72
2018-03-26T01:40:48.010Z,54.35
2018-03-26T01:41:48.032Z,54.53
2018-03-26T01:42:48.048Z,54.63
2018-03-26T01:43:48.067Z,54.53
2018-03-26T01:44:48.083Z,54.53
2018-03-26T01:45:48.099Z,54.91
2018-03-26T01:46:48.267Z,54.91
2018-03-26T01:47:47.881Z,54.91
2018-03-26T01:48:48.149Z,55.58
2018-03-26T01:49:48.170Z,54.06
2018-03-26T01:50:48.207Z,54.25
2018-03-26T01:51:48.210Z,54.18
2018-03-26T01:52:48.221Z,54.47
2018-03-26T01:53:48.238Z,54.18
2018-03-26T01:54:48.002Z,53.7
2018-03-26T01:55:48.020Z,53.8
2018-03-26T01:56:48.392Z,54.08
2018-03-26T01:57:48.311Z,54.18
2018-03-26T01:58:48.328Z,53.8
2018-03-26T01:59:48.345Z,53.89
2018-03-26T02:00:48.361Z,53.52
2018-03-26T02:01:48.473Z,52.75
2018-03-26T02:02:48.395Z,52.94
2018-03-26T02:03:48.160Z,53.13
2018-03-26T02:04:48.472Z,52.84
2018-03-26T02:05:48.193Z,53.23
2018-03-26T02:06:48.211Z,53.23
2018-03-26T02:07:48.227Z,53.7
2018-03-26T02:08:48.506Z,53.23
2018-03-26T02:09:48.518Z,53.11
2018-03-26T02:10:48.535Z,53.11
2018-03-26T02:11:48.604Z,53.01
2018-03-26T02:12:48.315Z,53.7
2018-03-26T02:13:48.339Z,53.77
2018-03-26T02:14:48.353Z,54.15
2018-03-26T02:15:48.628Z,53.99
2018-03-26T02:16:48.642Z,52.84
2018-03-26T02:17:48.425Z,53.13
2018-03-26T02:18:48.685Z,53.39
2018-03-26T02:19:48.693Z,53.2
2018-03-26T02:20:48.455Z,53.11
2018-03-26T02:21:48.728Z,52.92
2018-03-26T02:22:48.489Z,53.77
2018-03-26T02:23:48.762Z,53.96
2018-03-26T02:24:48.828Z,53.96
2018-03-26T02:25:48.543Z,54.25
2018-03-26T02:26:48.611Z,54.06
2018-03-26T02:27:48.577Z,54.82
2018-03-26T02:28:48.847Z,54.82
2018-03-26T02:29:48.857Z,54.72
2018-03-26T02:30:48.952Z,54.06
2018-03-26T02:31:48.897Z,53.49
2018-03-26T02:32:48.914Z,54.35
2018-03-26T02:33:48.941Z,54.25
2018-03-26T02:34:48.960Z,53.67
2018-03-26T02:35:48.718Z,53.87
2018-03-26T02:36:48.995Z,54.15
2018-03-26T02:37:49.012Z,53.96
2018-03-26T02:38:49.030Z,54.06
2018-03-26T02:39:49.042Z,53.8
2018-03-26T02:40:49.060Z,54.56
2018-03-26T02:41:48.876Z,53.89
2018-03-26T02:42:49.094Z,53.32
2018-03-26T02:43:49.113Z,53.99
2018-03-26T02:44:49.129Z,53.89
2018-03-26T02:45:49.141Z,53.87
2018-03-26T02:46:49.228Z,53.67
2018-03-26T02:47:48.935Z,54.15
2018-03-26T02:48:49.246Z,54.35
2018-03-26T02:49:49.234Z,54.15
2018-03-26T02:50:49.023Z,54.06
2018-03-26T02:51:49.273Z,54.25
2018-03-26T02:52:49.020Z,53.96
2018-03-26T02:53:49.037Z,54.06
2018-03-26T02:54:49.313Z,54.06
2018-03-26T02:55:49.332Z,54.25
2018-03-26T02:56:49.345Z,54.15
2018-03-26T02:57:49.365Z,54.18
2018-03-26T02:58:49.127Z,53.89
2018-03-26T02:59:49.399Z,54.66
2018-03-26T03:00:49.415Z,53.89
2018-03-26T03:01:49.484Z,53.52
2018-03-26T03:02:49.454Z,53.87
2018-03-26T03:03:49.210Z,54.27
2018-03-26T03:04:49.488Z,54.53
2018-03-26T03:05:49.508Z,55.2
2018-03-26T03:06:49.529Z,55.2
2018-03-26T03:07:49.536Z,55.39
2018-03-26T03:08:49.553Z,54.53
2018-03-26T03:09:49.572Z,54.15
2018-03-26T03:10:49.335Z,54.53
2018-03-26T03:11:49.352Z,54.44
2018-03-26T03:12:49.371Z,55.2
2018-03-26T03:13:49.643Z,55.29
2018-03-26T03:14:49.658Z,55.77
2018-03-26T03:15:49.432Z,55.83
2018-03-26T03:16:49.745Z,55.93
2018-03-26T03:17:49.712Z,56.31
2018-03-26T03:18:49.728Z,56.41
2018-03-26T03:19:49.761Z,56.41
2018-03-26T03:20:49.766Z,56.51
2018-03-26T03:21:49.524Z,57.17
2018-03-26T03:22:49.794Z,57.36
2018-03-26T03:23:49.814Z,57.36
2018-03-26T03:24:49.831Z,58.03
2018-03-26T03:25:49.851Z,58.18
2018-03-26T03:26:49.863Z,58.18
2018-03-26T03:27:49.876Z,58.85
2018-03-26T03:28:49.897Z,59.05
2018-03-26T03:29:49.663Z,58.37
2018-03-26T03:30:49.953Z,58.18
2018-03-26T03:31:50.002Z,58.57
2018-03-26T03:32:49.995Z,58.76
2018-03-26T03:33:49.986Z,59.33
2018-03-26T03:34:50.006Z,59.42
2018-03-26T03:35:50.027Z,59.61
2018-03-26T03:36:50.034Z,59.05
2018-03-26T03:37:50.053Z,59.61
2018-03-26T03:38:49.815Z,59.33
2018-03-26T03:39:50.086Z,58.85
2018-03-26T03:40:49.845Z,59.05
2018-03-26T03:41:49.863Z,58.66
2018-03-26T03:42:50.139Z,58.66
2018-03-26T03:43:50.155Z,58.37
2018-03-26T03:44:50.170Z,58.57
2018-03-26T03:45:50.193Z,58.76
2018-03-26T03:46:50.199Z,58.4
2018-03-26T03:47:50.220Z,58.22
2018-03-26T03:48:50.237Z,57.45
2018-03-26T03:49:50.301Z,57.26
2018-03-26T03:50:50.273Z,57.55
2018-03-26T03:51:50.286Z,57.26
2018-03-26T03:52:50.050Z,57.45
2018-03-26T03:53:50.070Z,57.65
2018-03-26T03:54:50.343Z,57.07
2018-03-26T03:55:50.354Z,57.07
2018-03-26T03:56:50.370Z,57.07
2018-03-26T03:57:50.386Z,56.98
2018-03-26T03:58:50.400Z,56.88
2018-03-26T03:59:50.520Z,56.98
2018-03-26T04:00:50.182Z,57.17
2018-03-26T04:01:50.454Z,56.98
2018-03-26T04:02:50.482Z,56.79
2018-03-26T04:03:50.488Z,56.6
2018-03-26T04:04:50.400Z,56.7
2018-03-26T04:05:50.529Z,56.22
2018-03-26T04:06:50.534Z,55.55
2018-03-26T04:07:50.556Z,56.03
2018-03-26T04:08:50.576Z,56.7
2018-03-26T04:09:50.331Z,55.93
2018-03-26T04:10:50.598Z,56.03
2018-03-26T04:11:50.617Z,56.24
2018-03-26T04:12:50.643Z,55.77
2018-03-26T04:13:50.650Z,55.96
2018-03-26T04:14:50.668Z,55.68
2018-03-26T04:15:50.682Z,55.2
2018-03-26T04:16:50.703Z,55.29
2018-03-26T04:17:50.796Z,55.1
2018-03-26T04:18:50.483Z,54.91
2018-03-26T04:19:50.555Z,55.49
2018-03-26T04:20:50.775Z,55.1
2018-03-26T04:21:50.537Z,54.91
2018-03-26T04:22:50.556Z,55.39
2018-03-26T04:23:50.826Z,55.29
2018-03-26T04:24:50.845Z,55.49
2018-03-26T04:25:50.986Z,55.29
2018-03-26T04:26:50.625Z,55.29
2018-03-26T04:27:50.892Z,55.49
2018-03-26T04:28:50.912Z,55.58
2018-03-26T04:29:50.933Z,55.29
2018-03-26T04:30:50.953Z,55.49
2018-03-26T04:31:50.964Z,55.49
2018-03-26T04:32:50.984Z,55.96
2018-03-26T04:33:51.003Z,55.77
2018-03-26T04:34:51.068Z,55.29
2018-03-26T04:35:51.031Z,55.65
2018-03-26T04:36:51.049Z,55.65
2018-03-26T04:37:50.811Z,56.12
2018-03-26T04:38:51.070Z,55.74
2018-03-26T04:39:50.843Z,56.03
2018-03-26T04:40:50.855Z,56.41
2018-03-26T04:41:51.148Z,57.93
2018-03-26T04:42:51.150Z,58.31
2018-03-26T04:43:50.913Z,58.47
2018-03-26T04:44:51.185Z,58.85
2018-03-26T04:45:51.216Z,58.47
2018-03-26T04:46:51.218Z,59.05
2018-03-26T04:47:51.234Z,59.05
2018-03-26T04:48:50.996Z,59.42
2018-03-26T04:49:51.368Z,59.99
2018-03-26T04:50:51.283Z,59.52
2018-03-26T04:51:51.310Z,60.28
2018-03-26T04:52:51.064Z,60.28
2018-03-26T04:53:51.337Z,59.99
2018-03-26T04:54:51.098Z,59.99
2018-03-26T04:55:51.435Z,59.42
2018-03-26T04:56:51.383Z,59.61
2018-03-26T04:57:51.405Z,59.23
2018-03-26T04:58:51.424Z,59.33
2018-03-26T04:59:51.179Z,59.71
2018-03-26T05:00:51.194Z,60.57
2018-03-26T05:01:51.465Z,60.28
2018-03-26T05:02:51.481Z,60.47
2018-03-26T05:03:51.500Z,60.57
2018-03-26T05:04:51.515Z,60.18
2018-03-26T05:05:51.530Z,60.57
2018-03-26T05:06:51.597Z,60.18
2018-03-26T05:07:51.572Z,60.94
2018-03-26T05:08:51.576Z,61.2
2018-03-26T05:09:51.334Z,61.77
2018-03-26T05:10:51.614Z,61.87
2018-03-26T05:11:51.418Z,61.68
2018-03-26T05:12:51.646Z,61.87
2018-03-26T05:13:51.405Z,61.58
2018-03-26T05:14:51.677Z,62.15
2018-03-26T05:15:51.446Z,62.15
2018-03-26T05:16:51.457Z,62.24
2018-03-26T05:17:51.729Z,61.96
2018-03-26T05:18:51.744Z,62.53
2018-03-26T05:19:51.763Z,62.15
2018-03-26T05:20:51.526Z,62.34
2018-03-26T05:21:51.538Z,62.72
2018-03-26T05:22:51.839Z,63.57
2018-03-26T05:23:51.827Z,63.67
2018-03-26T05:24:51.840Z,63.57
2018-03-26T05:25:51.861Z,63.95
2018-03-26T05:26:51.922Z,64.05
2018-03-26T05:27:51.885Z,63.57
2018-03-26T05:28:51.905Z,63.67
2018-03-26T05:29:51.668Z,63.2
2018-03-26T05:30:51.937Z,63.2
2018-03-26T05:31:52.050Z,63.01
2018-03-26T05:32:51.719Z,63.29
2018-03-26T05:33:51.730Z,63.48
2018-03-26T05:34:52.002Z,62.91
2018-03-26T05:35:52.223Z,62.91
2018-03-26T05:36:52.085Z,63.01
2018-03-26T05:37:51.796Z,62.91
2018-03-26T05:38:51.811Z,63.01
2018-03-26T05:39:51.826Z,62.37
2018-03-26T05:40:52.163Z,62.53
2018-03-26T05:41:52.118Z,62.53
2018-03-26T05:42:52.129Z,62.91
2018-03-26T05:43:51.891Z,63.1
2018-03-26T05:44:51.908Z,63.01
2018-03-26T05:45:52.178Z,62.72
2018-03-26T05:46:51.939Z,62.27
2018-03-26T05:47:52.212Z,61.71
2018-03-26T05:48:52.225Z,62.34
2018-03-26T05:49:52.245Z,62.62
2018-03-26T05:50:52.261Z,63.1
2018-03-26T05:51:52.329Z,62.81
2018-03-26T05:52:52.290Z,62.81
2018-03-26T05:53:52.306Z,63.1
2018-03-26T05:54:52.329Z,63.39
2018-03-26T05:55:52.337Z,63.95
2018-03-26T05:56:52.356Z,64.43
2018-03-26T05:57:52.117Z,63.86
2018-03-26T05:58:52.138Z,63.95
2018-03-26T05:59:52.150Z,64.81
2018-03-26T06:00:52.419Z,64.72
2018-03-26T06:01:52.183Z,64.69
2018-03-26T06:02:52.455Z,64.69
2018-03-26T06:03:52.224Z,64.81
2018-03-26T06:04:52.490Z,64.14
2018-03-26T06:05:52.504Z,64.14
2018-03-26T06:06:52.519Z,63.2
2018-03-26T06:07:52.283Z,62.62
2018-03-26T06:08:52.556Z,62.81
2018-03-26T06:09:52.576Z,62.81
2018-03-26T06:10:52.331Z,62.94
2018-03-26T06:11:52.605Z,62.65
2018-03-26T06:12:52.619Z,63.1
2018-03-26T06:13:52.378Z,63.01
2018-03-26T06:14:52.410Z,62.34
2018-03-26T06:15:52.668Z,61.8
2018-03-26T06:16:52.428Z,61.61
2018-03-26T06:17:52.740Z,61.8
2018-03-26T06:18:52.462Z,61.52
2018-03-26T06:19:52.476Z,61.23
2018-03-26T06:20:52.746Z,60.94
2018-03-26T06:21:52.764Z,61.13
2018-03-26T06:22:52.523Z,61.04
2018-03-26T06:23:52.542Z,60.85
2018-03-26T06:24:52.914Z,60.57
2018-03-26T06:25:52.824Z,60.18
2018-03-26T06:26:52.843Z,60.09
2018-03-26T06:27:52.863Z,60.09
2018-03-26T06:28:52.898Z,59.23
2018-03-26T06:29:52.893Z,60.18
2018-03-26T06:30:52.907Z,60.75
2018-03-26T06:31:52.673Z,59.8
2018-03-26T06:32:53.003Z,60.18
2018-03-26T06:33:52.962Z,59.8
2018-03-26T06:34:52.724Z,59.8
2018-03-26T06:35:52.782Z,59.42
2018-03-26T06:36:52.761Z,59.52
2018-03-26T06:37:52.774Z,59.42
2018-03-26T06:38:53.067Z,59.23
2018-03-26T06:39:53.061Z,59.42
2018-03-26T06:40:52.830Z,59.45
2018-03-26T06:41:53.094Z,59.27
2018-03-26T06:42:53.110Z,59.05
2018-03-26T06:43:53.128Z,59.33
2018-03-26T06:44:53.145Z,58.88
2018-03-26T06:45:53.160Z,58.95
2018-03-26T06:46:53.178Z,58.85
2018-03-26T06:47:52.990Z,58.5
2018-03-26T06:48:53.211Z,58.5
2018-03-26T06:49:52.979Z,57.93
2018-03-26T06:50:52.996Z,58.12
2018-03-26T06:51:53.007Z,57.93
2018-03-26T06:52:53.385Z,57.74
2018-03-26T06:53:53.297Z,57.74
2018-03-26T06:54:53.060Z,58.12
2018-03-26T06:55:53.335Z,57.84
2018-03-26T06:56:53.348Z,56.98
2018-03-26T06:57:53.363Z,57.01
2018-03-26T06:58:53.379Z,56.31
2018-03-26T06:59:53.145Z,56.44
2018-03-26T07:00:53.161Z,56.72
2018-03-26T07:01:53.178Z,55.96
2018-03-26T07:02:53.499Z,55.87
2018-03-26T07:03:53.468Z,55.87
2018-03-26T07:04:53.486Z,56.15
2018-03-26T07:05:53.247Z,56.24
2018-03-26T07:06:53.264Z,56.24
2018-03-26T07:07:53.289Z,56.44
2018-03-26T07:08:53.297Z,56.79
2018-03-26T07:09:53.565Z,56.79
2018-03-26T07:10:53.583Z,57.55
2018-03-26T07:11:53.602Z,56.7
2018-03-26T07:12:53.366Z,57.17
2018-03-26T07:13:53.640Z,57.26
2018-03-26T07:14:53.655Z,56.88
2018-03-26T07:15:53.728Z,57.17
2018-03-26T07:16:53.445Z,56.79
2018-03-26T07:17:53.762Z,58.03
2018-03-26T07:18:53.747Z,58.12
2018-03-26T07:19:53.486Z,57.65
2018-03-26T07:20:53.755Z,59.07
2018-03-26T07:21:53.776Z,58.59
2018-03-26T07:22:53.541Z,58.88
2018-03-26T07:23:53.816Z,58.98
2018-03-26T07:24:53.825Z,59.36
2018-03-26T07:25:53.845Z,59.45
2018-03-26T07:26:53.864Z,59.99
2018-03-26T07:27:53.887Z,59.74
2018-03-26T07:28:53.941Z,59.61
2018-03-26T07:29:53.909Z,59.17
2018-03-26T07:30:53.933Z,58.4
2018-03-26T07:31:53.940Z,58.59
2018-03-26T07:32:54.014Z,58.4
2018-03-26T07:33:53.978Z,58.5
2018-03-26T07:34:53.738Z,58.31
2018-03-26T07:35:54.022Z,58.12
2018-03-26T07:36:54.025Z,57.39
2018-03-26T07:37:53.790Z,57.65
2018-03-26T07:38:54.071Z,57.58
2018-03-26T07:39:54.073Z,57.01
2018-03-26T07:40:53.836Z,56.63
2018-03-26T07:41:54.111Z,56.53
2018-03-26T07:42:54.076Z,56.44
2018-03-26T07:43:54.143Z,57.01
2018-03-26T07:44:54.170Z,57.07
2018-03-26T07:45:54.180Z,56.92
2018-03-26T07:46:53.942Z,56.72
2018-03-26T07:47:54.271Z,56.44
2018-03-26T07:48:53.978Z,55.96
2018-03-26T07:49:54.380Z,56.05
2018-03-26T07:50:54.031Z,55.77
2018-03-26T07:51:54.383Z,55.87
2018-03-26T07:52:54.301Z,55.29
2018-03-26T07:53:54.314Z,54.82
2018-03-26T07:54:54.332Z,55.1
2018-03-26T07:55:54.095Z,55.49
2018-03-26T07:56:54.368Z,55.49
2018-03-26T07:57:54.129Z,55.49
2018-03-26T07:58:54.410Z,55.77
2018-03-26T07:59:54.164Z,55.87
2018-03-26T08:00:54.182Z,55.77
2018-03-26T08:01:54.460Z,55.77
2018-03-26T08:02:54.525Z,55.77
2018-03-26T08:03:54.494Z,56.53
2018-03-26T08:04:54.296Z,55.87
2018-03-26T08:05:54.543Z,56.24
2018-03-26T08:06:54.540Z,55.77
2018-03-26T08:07:54.562Z,55.87
2018-03-26T08:08:54.576Z,56.15
2018-03-26T08:09:54.592Z,56.15
2018-03-26T08:10:54.355Z,56.15
2018-03-26T08:11:54.626Z,56.24
2018-03-26T08:12:54.645Z,56.79
2018-03-26T08:13:54.662Z,56.88
2018-03-26T08:14:54.426Z,55.93
2018-03-26T08:15:54.442Z,55.2
2018-03-26T08:16:54.721Z,55.01
2018-03-26T08:17:54.783Z,55.2
2018-03-26T08:18:54.499Z,55.39
2018-03-26T08:19:54.780Z,55.58
2018-03-26T08:20:54.529Z,55.58
2018-03-26T08:21:54.546Z,55.49
2018-03-26T08:22:54.565Z,55.1
2018-03-26T08:23:54.833Z,55.49
2018-03-26T08:24:54.599Z,55.49
2018-03-26T08:25:54.868Z,55.68
2018-03-26T08:26:54.888Z,55.58
2018-03-26T08:27:54.906Z,55.87
2018-03-26T08:28:54.669Z,55.49
2018-03-26T08:29:54.943Z,55.29
2018-03-26T08:30:54.958Z,55.2
2018-03-26T08:31:54.978Z,54.63
2018-03-26T08:32:55.042Z,54.72
2018-03-26T08:33:54.754Z,54.44
2018-03-26T08:34:55.027Z,54.44
2018-03-26T08:35:55.042Z,54.53
2018-03-26T08:36:55.061Z,53.8
2018-03-26T08:37:55.065Z,53.13
2018-03-26T08:38:54.841Z,53.3
2018-03-26T08:39:55.112Z,53.58
2018-03-26T08:40:54.876Z,54.06
2018-03-26T08:41:54.902Z,53.77
2018-03-26T08:42:55.163Z,53.32
2018-03-26T08:43:55.186Z,53.13
2018-03-26T08:44:55.197Z,53.11
2018-03-26T08:45:54.962Z,53.11
2018-03-26T08:46:55.236Z,53.01
2018-03-26T08:47:55.307Z,53.01
2018-03-26T08:48:55.015Z,53.01
2018-03-26T08:49:55.610Z,53.77
2018-03-26T08:50:55.050Z,53.96
2018-03-26T08:51:55.324Z,53.3
2018-03-26T08:52:55.089Z,53.32
2018-03-26T08:53:55.105Z,52.94
2018-03-26T08:54:55.376Z,52.37
2018-03-26T08:55:55.389Z,53.23
2018-03-26T08:56:55.408Z,53.04
2018-03-26T08:57:55.425Z,51.8
2018-03-26T08:58:55.443Z,51.61
2018-03-26T08:59:55.462Z,51.51
2018-03-26T09:00:55.228Z,52.09
2018-03-26T09:01:55.245Z,51.61
2018-03-26T09:02:55.258Z,51.92
2018-03-26T09:03:55.532Z,51.51
2018-03-26T09:04:55.556Z,51.89
2018-03-26T09:05:55.571Z,52.09
2018-03-26T09:06:55.605Z,51.8
2018-03-26T09:07:55.605Z,51.89
2018-03-26T09:08:55.369Z,51.82
2018-03-26T09:09:55.386Z,52.09
2018-03-26T09:10:55.658Z,52.94
2018-03-26T09:11:55.683Z,53.04
2018-03-26T09:12:55.692Z,52.47
2018-03-26T09:13:55.712Z,51.99
2018-03-26T09:14:55.477Z,51.73
2018-03-26T09:15:55.800Z,51.92
2018-03-26T09:16:55.769Z,50.97
2018-03-26T09:17:55.789Z,50.59
2018-03-26T09:18:55.815Z,50.42
2018-03-26T09:19:55.821Z,49.56
2018-03-26T09:20:55.593Z,48.61
2018-03-26T09:21:55.603Z,48.35
2018-03-26T09:22:55.622Z,47.78
2018-03-26T09:23:55.898Z,49.08
2018-03-26T09:24:55.913Z,48.42
2018-03-26T09:25:55.980Z,48.07
2018-03-26T09:26:55.960Z,47.58
2018-03-26T09:27:55.977Z,47.52
2018-03-26T09:28:55.733Z,47.42
2018-03-26T09:29:56.008Z,46.66
2018-03-26T09:30:56.028Z,46.37
2018-03-26T09:31:56.053Z,46.27
2018-03-26T09:32:56.064Z,45.15
2018-03-26T09:33:56.095Z,44.87
2018-03-26T09:34:56.103Z,44.96
2018-03-26T09:35:56.126Z,44.51
2018-03-26T09:36:55.886Z,43.46
2018-03-26T09:37:55.910Z,43.26
2018-03-26T09:38:56.180Z,44.2
2018-03-26T09:39:56.206Z,44.96
2018-03-26T09:40:56.221Z,45.22
2018-03-26T09:41:56.241Z,46.37
2018-03-26T09:42:56.008Z,45.99
2018-03-26T09:43:56.286Z,45.42
2018-03-26T09:44:56.044Z,45.06
2018-03-26T09:45:56.335Z,45.06
2018-03-26T09:46:56.353Z,44.1
2018-03-26T09:47:56.356Z,44.38
2018-03-26T09:48:56.378Z,44.29
2018-03-26T09:49:56.153Z,44.1
2018-03-26T09:50:56.414Z,44.22
2018-03-26T09:51:56.457Z,43.46
2018-03-26T09:52:56.457Z,43.55
2018-03-26T09:53:56.474Z,44.38
2018-03-26T09:54:56.497Z,45.13
2018-03-26T09:55:56.320Z,45.61
2018-03-26T09:56:56.282Z,45.03
2018-03-26T09:57:56.302Z,44.96
2018-03-26T09:58:56.579Z,44.38
2018-03-26T09:59:56.596Z,44.96
2018-03-26T10:00:56.619Z,44.96
2018-03-26T10:01:56.635Z,44.96
2018-03-26T10:02:56.655Z,45.22
2018-03-26T10:03:56.676Z,45.06
2018-03-26T10:04:56.440Z,44.67
2018-03-26T10:05:56.717Z,43.82
2018-03-26T10:06:56.743Z,43.93
2018-03-26T10:07:56.757Z,43.26
2018-03-26T10:08:56.775Z,43.17
2018-03-26T10:09:56.540Z,43.91
2018-03-26T10:10:56.610Z,44.2
2018-03-26T10:11:56.580Z,44.1
2018-03-26T10:12:56.601Z,43.84
2018-03-26T10:13:56.874Z,43.17
2018-03-26T10:14:56.898Z,43.74
2018-03-26T10:15:56.919Z,43.74
2018-03-26T10:16:56.932Z,43.26
2018-03-26T10:17:56.947Z,43.36
2018-03-26T10:18:56.966Z,42.69
2018-03-26T10:19:56.734Z,42.43
2018-03-26T10:20:57.008Z,42.79
2018-03-26T10:21:56.781Z,43.46
2018-03-26T10:22:57.057Z,43.36
2018-03-26T10:23:57.079Z,43.55
2018-03-26T10:24:57.099Z,42.69
2018-03-26T10:25:56.963Z,42.5
2018-03-26T10:26:57.151Z,42.88
2018-03-26T10:27:57.168Z,43.26
2018-03-26T10:28:56.920Z,43.46
2018-03-26T10:29:56.947Z,43.46
2018-03-26T10:30:57.217Z,43.26
2018-03-26T10:31:57.240Z,43.26
2018-03-26T10:32:57.251Z,42.69
2018-03-26T10:33:57.020Z,42.71
2018-03-26T10:34:57.303Z,42.61
2018-03-26T10:35:57.057Z,42.14
2018-03-26T10:36:57.334Z,42.14
2018-03-26T10:37:57.357Z,42.04
2018-03-26T10:38:57.123Z,42.14
2018-03-26T10:39:57.142Z,42.24
2018-03-26T10:40:57.468Z,42.43
2018-03-26T10:41:57.441Z,42.43
2018-03-26T10:42:57.227Z,42.14
2018-03-26T10:43:57.480Z,42.24
2018-03-26T10:44:57.242Z,42.81
2018-03-26T10:45:57.524Z,42.52
2018-03-26T10:46:57.539Z,42.4
2018-03-26T10:47:57.559Z,42.24
2018-03-26T10:48:57.325Z,42.33
2018-03-26T10:49:57.598Z,42.61
2018-03-26T10:50:57.617Z,42.14
2018-03-26T10:51:57.638Z,41.93
2018-03-26T10:52:57.404Z,42.11
2018-03-26T10:53:57.426Z,42.14
2018-03-26T10:54:57.694Z,41.95
2018-03-26T10:55:57.874Z,41.47
2018-03-26T10:56:57.736Z,41.09
2018-03-26T10:57:57.507Z,41.18
2018-03-26T10:58:57.522Z,41.38
2018-03-26T10:59:57.545Z,40.7
2018-03-26T11:00:57.869Z,40.7
2018-03-26T11:01:57.585Z,40.42
2018-03-26T11:02:57.856Z,40.52
2018-03-26T11:03:57.877Z,40.13
2018-03-26T11:04:57.905Z,39.58
2018-03-26T11:05:57.924Z,39.58
2018-03-26T11:06:57.941Z,39.29
2018-03-26T11:07:57.705Z,39.29
2018-03-26T11:08:57.979Z,38.91
2018-03-26T11:09:57.744Z,38.64
2018-03-26T11:10:57.767Z,38.35
2018-03-26T11:11:57.787Z,38.17
2018-03-26T11:12:58.059Z,37.88
2018-03-26T11:13:58.132Z,37.68
2018-03-26T11:14:57.838Z,37.99
2018-03-26T11:15:58.124Z,37.9
2018-03-26T11:16:58.140Z,37.41
2018-03-26T11:17:57.915Z,36.65
2018-03-26T11:18:57.931Z,36.84
2018-03-26T11:19:57.965Z,36.36
2018-03-26T11:20:58.230Z,36.46
2018-03-26T11:21:58.249Z,36.17
2018-03-26T11:22:58.277Z,36.29
2018-03-26T11:23:58.289Z,36.29
2018-03-26T11:24:58.054Z,36.38
2018-03-26T11:25:58.076Z,36.65
2018-03-26T11:26:58.348Z,36.36
2018-03-26T11:27:58.386Z,36.55
2018-03-26T11:28:58.392Z,36.65
2018-03-26T11:29:58.471Z,36.65
2018-03-26T11:30:58.435Z,36.46
2018-03-26T11:31:58.454Z,36.27
2018-03-26T11:32:58.477Z,36.1
2018-03-26T11:33:58.242Z,36.1
2018-03-26T11:34:58.524Z,36.19
2018-03-26T11:35:58.541Z,36.19
2018-03-26T11:36:58.561Z,36.47
2018-03-26T11:37:58.600Z,37.04
2018-03-26T11:38:58.605Z,37.13
2018-03-26T11:39:58.369Z,36.94
2018-03-26T11:40:58.392Z,36.94
2018-03-26T11:41:58.667Z,36.55
2018-03-26T11:42:58.433Z,36
2018-03-26T11:43:58.707Z,36.47
2018-03-26T11:44:58.731Z,36.46
2018-03-26T11:45:58.758Z,36.65
2018-03-26T11:46:58.773Z,36.84
2018-03-26T11:47:58.794Z,36.46
2018-03-26T11:48:58.871Z,36.55
2018-03-26T11:49:58.838Z,36.75
2018-03-26T11:50:58.860Z,37.04
2018-03-26T11:51:58.628Z,37.9
2018-03-26T11:52:58.648Z,37.8
2018-03-26T11:53:58.925Z,37.9
2018-03-26T11:54:58.954Z,37.99
2018-03-26T11:55:58.711Z,38.45
2018-03-26T11:56:58.986Z,38.35
2018-03-26T11:57:59.004Z,38.64
2018-03-26T11:58:59.026Z,39.1
2018-03-26T11:59:59.045Z,39.86
2018-03-26T12:00:58.823Z,39.86
2018-03-26T12:01:58.836Z,40.25
2018-03-26T12:02:59.110Z,40.72
2018-03-26T12:03:59.129Z,40.61
2018-03-26T12:04:59.153Z,40.52
2018-03-26T12:05:58.921Z,40.8
2018-03-26T12:06:59.208Z,41.28
2018-03-26T12:07:59.220Z,41.09
2018-03-26T12:08:59.292Z,42.02
2018-03-26T12:09:59.257Z,42.02
2018-03-26T12:10:59.283Z,41.93
2018-03-26T12:11:59.307Z,41.93
2018-03-26T12:12:59.063Z,41.93
2018-03-26T12:13:59.347Z,41.83
2018-03-26T12:14:59.358Z,42.31
2018-03-26T12:15:59.387Z,42.69
2018-03-26T12:16:59.399Z,43.33
2018-03-26T12:17:59.417Z,43.33
2018-03-26T12:18:59.439Z,43.26
2018-03-26T12:19:59.202Z,43.74
2018-03-26T12:20:59.227Z,43.74
2018-03-26T12:21:59.243Z,43.55
2018-03-26T12:22:59.259Z,43.91
2018-03-26T12:23:59.533Z,44.2
2018-03-26T12:24:59.302Z,44.77
2018-03-26T12:25:59.577Z,44.67
2018-03-26T12:26:59.342Z,44.12
2018-03-26T12:27:59.620Z,44.79
2018-03-26T12:28:59.380Z,44.87
2018-03-26T12:29:59.654Z,44.87
2018-03-26T12:30:59.675Z,45.25
2018-03-26T12:31:59.704Z,45.53
2018-03-26T12:32:59.763Z,45.34
2018-03-26T12:33:59.474Z,45.63
2018-03-26T12:34:59.752Z,45.82
2018-03-26T12:35:59.538Z,45.82
2018-03-26T12:36:59.789Z,45.79
2018-03-26T12:37:59.795Z,46.11
2018-03-26T12:38:59.814Z,45.82
2018-03-26T12:39:59.643Z,45.72
2018-03-26T12:40:59.609Z,45.25
2018-03-26T12:41:59.883Z,45.79
2018-03-26T12:43:00.001Z,45.89
2018-03-26T12:43:59.675Z,45.61
2018-03-26T12:44:59.685Z,45.61
2018-03-26T12:45:59.962Z,45.89
2018-03-26T12:46:59.725Z,45.22
2018-03-26T12:48:00.045Z,45.22
2018-03-26T12:49:00.017Z,44.74
2018-03-26T12:50:00.033Z,44.27
2018-03-26T12:50:59.820Z,43.7
2018-03-26T12:52:00.073Z,44.17
2018-03-26T12:52:59.843Z,44.08
2018-03-26T12:54:00.116Z,44.27
2018-03-26T12:55:00.131Z,44.17
2018-03-26T12:56:00.148Z,44.08